Airfield :







YOU CAN JOIN US ON...

 
LOGIN :

Register | Disclaimer

   EN    FR    IT 

 









Legend :    VFR   Marginal VFR   IFR   Intensive IFR   Very Intensive IFR
Visi :
Ceiling :
>= 8 km
>= 3000ft
5 to 8 km
1000 to 3000 ft
1500m to 5 km
500 to 1000 ft
800 to 1500m
200 to 500 ft
< 800m
< 200 ft
Symbols :   Thunderstorms  Fog  Heavy snow  Heavy precipitations  Wind > 20 kt







- Airport Elevation : 68 ft
- IATA code : YFC


CYFC - Fredericton

CURRENT METAR :
  • 220600Z AUTO 32012G17KT 9SM FEW075 BKN110 06/03 A2980 RMK SLP095

EXPIRED METARs :
  • 220500Z AUTO 32013G19KT 9SM OVC070 06/03 A2979 RMK SLP089
  • 220400Z AUTO 32010G18KT 9SM BKN029 OVC060 05/03 A2977 RMK SLP083

TAF TAF CYFC
Valid from the 22 at 06:00 until the 22 at 18:00 UTC


220538Z 2206/2218 33012G22KT P6SM OVC030
TEMPO 2206/2214 5SM -SHRA BR OVC020
FM221400 36010G20KT P6SM OVC030 RMK FCST BASED ON AUTO OBS. NXT FCST BY 221200Z
CZQM FIR / North America



MET'MAP, your aeronautical weather chart ! - Copyright ORBIFLY December 2007 - Disclaimer

ORBIFLY MET'MAP TEAM :

Programming & Development : Alexandra Zaïnal
Concept & Development : Baudouin d'Aumeries
Co-Development & Prog : Marc-Olivier Méhu
Technical & hardware support : Manuel Goepfert

Contact : metmap@orbifly.com




SOURCES & CREDITS :

   NOAA